createdAt,value
2022-07-25T00:01:44.410Z,4.10
2022-07-25T00:04:12.731Z,4.47
2022-07-25T00:06:41.843Z,4.80
2022-07-25T00:09:08.586Z,4.03
2022-07-25T00:11:35.225Z,4.20
2022-07-25T00:14:01.873Z,4.07
2022-07-25T00:16:28.574Z,4.03
2022-07-25T00:18:55.412Z,4.20
2022-07-25T00:21:22.279Z,4.50
2022-07-25T00:23:49.290Z,3.72
2022-07-25T00:26:17.087Z,4.53
2022-07-25T00:28:44.572Z,4.00
2022-07-25T00:31:14.554Z,4.10
2022-07-25T00:33:41.956Z,4.68
2022-07-25T00:36:09.939Z,4.10
2022-07-25T00:38:38.349Z,4.18
2022-07-25T00:41:06.053Z,4.80
2022-07-25T00:43:33.195Z,4.80
2022-07-25T00:46:00.684Z,4.43
2022-07-25T00:48:38.196Z,4.63
2022-07-25T00:51:05.524Z,4.50
2022-07-25T00:53:32.806Z,4.65
2022-07-25T00:56:00.195Z,3.95
2022-07-25T00:58:26.957Z,4.43
2022-07-25T01:00:54.100Z,4.20
2022-07-25T01:03:21.053Z,4.25
2022-07-25T01:05:53.057Z,3.50
2022-07-25T01:08:21.469Z,3.72
2022-07-25T01:10:48.912Z,3.35
2022-07-25T01:13:15.945Z,3.63
2022-07-25T01:15:43.429Z,3.75
2022-07-25T01:18:10.178Z,3.90
2022-07-25T01:20:39.592Z,3.70
2022-07-25T01:23:06.162Z,3.50
2022-07-25T01:25:32.783Z,3.50
2022-07-25T01:27:59.890Z,3.22
2022-07-25T01:30:27.329Z,3.75
2022-07-25T01:32:54.052Z,3.67
2022-07-25T01:35:20.802Z,3.58
2022-07-25T01:37:48.972Z,3.30
2022-07-25T01:40:15.703Z,3.50
2022-07-25T01:42:56.168Z,3.58
2022-07-25T01:45:24.162Z,3.33
2022-07-25T01:47:50.860Z,3.17
2022-07-25T01:50:17.598Z,3.28
2022-07-25T01:52:51.429Z,3.25
2022-07-25T01:55:19.999Z,3.17
2022-07-25T01:57:49.760Z,2.90
2022-07-25T02:00:17.952Z,3.28
2022-07-25T02:02:45.259Z,3.40
2022-07-25T02:05:14.372Z,3.30
2022-07-25T02:07:49.129Z,3.17
2022-07-25T02:10:19.628Z,3.25
2022-07-25T02:12:46.166Z,3.00
2022-07-25T02:15:12.627Z,3.40
2022-07-25T02:17:50.038Z,2.90
2022-07-25T02:20:18.673Z,3.20
2022-07-25T02:22:48.034Z,3.33
2022-07-25T02:25:14.715Z,3.27
2022-07-25T02:27:41.595Z,3.45
2022-07-25T02:30:08.694Z,3.38
2022-07-25T02:32:35.248Z,3.33
2022-07-25T02:35:02.153Z,3.30
2022-07-25T02:37:28.659Z,3.47
2022-07-25T02:39:55.351Z,3.42
2022-07-25T02:42:21.922Z,3.13
2022-07-25T02:44:48.435Z,2.90
2022-07-25T02:47:15.098Z,3.40
2022-07-25T02:49:44.049Z,3.45
2022-07-25T02:52:10.658Z,3.35
2022-07-25T02:54:37.876Z,3.15
2022-07-25T02:57:05.158Z,2.80
2022-07-25T02:59:34.720Z,3.15
2022-07-25T03:02:04.831Z,3.50
2022-07-25T03:04:31.421Z,3.55
2022-07-25T03:06:57.902Z,3.65
2022-07-25T03:09:24.568Z,3.28
2022-07-25T03:11:52.145Z,3.50
2022-07-25T03:14:18.888Z,3.60
2022-07-25T03:16:45.441Z,3.50
2022-07-25T03:19:13.388Z,3.10
2022-07-25T03:21:40.277Z,3.22
2022-07-25T03:24:07.307Z,3.30
2022-07-25T03:26:34.746Z,3.05
2022-07-25T03:29:01.784Z,3.15
2022-07-25T03:31:31.597Z,3.10
2022-07-25T03:33:58.187Z,2.97
2022-07-25T03:36:26.027Z,3.47
2022-07-25T03:38:52.888Z,3.70
2022-07-25T03:41:19.356Z,3.75
2022-07-25T03:43:45.966Z,3.53
2022-07-25T03:46:12.445Z,3.72
2022-07-25T03:48:40.802Z,3.40
2022-07-25T03:51:07.566Z,3.65
2022-07-25T03:53:54.661Z,3.63
2022-07-25T03:56:22.596Z,3.10
2022-07-25T03:58:49.258Z,3.30
2022-07-25T04:01:16.721Z,3.55
2022-07-25T04:03:46.506Z,3.60
2022-07-25T04:06:13.431Z,3.58
2022-07-25T04:08:40.091Z,3.83
2022-07-25T04:11:06.609Z,3.40
2022-07-25T04:13:33.143Z,3.90
2022-07-25T04:15:59.646Z,3.58
2022-07-25T04:18:28.886Z,3.05
2022-07-25T04:20:56.674Z,3.70
2022-07-25T04:23:23.316Z,3.67
2022-07-25T04:25:49.883Z,3.38
2022-07-25T04:28:16.338Z,3.40
2022-07-25T04:30:45.481Z,3.50
2022-07-25T04:33:13.112Z,3.45
2022-07-25T04:35:39.899Z,3.30
2022-07-25T04:38:10.213Z,3.42
2022-07-25T04:40:43.093Z,3.78
2022-07-25T04:43:10.070Z,3.80
2022-07-25T04:45:36.922Z,3.65
2022-07-25T04:48:04.502Z,3.50
2022-07-25T04:50:31.162Z,3.50
2022-07-25T04:52:57.613Z,3.60
2022-07-25T04:55:24.186Z,3.25
2022-07-25T04:57:50.755Z,3.47
2022-07-25T05:00:17.500Z,3.50
2022-07-25T05:02:47.168Z,3.70
2022-07-25T05:05:21.104Z,3.83
2022-07-25T05:07:48.738Z,3.40
2022-07-25T05:10:15.270Z,3.53
2022-07-25T05:12:41.853Z,3.25
2022-07-25T05:15:08.866Z,3.90
2022-07-25T05:17:35.451Z,3.40
2022-07-25T05:20:01.912Z,3.60
2022-07-25T05:22:29.197Z,3.72
2022-07-25T05:24:56.290Z,3.75
2022-07-25T05:27:26.397Z,3.70
2022-07-25T05:32:19.588Z,3.42
2022-07-25T05:34:46.186Z,3.78
2022-07-25T05:37:12.654Z,3.67
2022-07-25T05:39:40.373Z,3.83
2022-07-25T05:42:07.606Z,4.13
2022-07-25T05:44:34.759Z,3.50
2022-07-25T05:47:01.432Z,3.65
2022-07-25T05:49:28.443Z,3.45
2022-07-25T05:51:54.961Z,3.90
2022-07-25T05:54:21.460Z,3.85
2022-07-25T05:56:48.243Z,3.90
2022-07-25T05:59:16.099Z,3.72
2022-07-25T06:01:42.571Z,4.15
2022-07-25T06:04:09.352Z,3.97
2022-07-25T06:06:36.025Z,3.72
2022-07-25T06:09:02.470Z,3.60
2022-07-25T06:11:34.562Z,3.72
2022-07-25T06:14:01.142Z,3.67
2022-07-25T06:16:27.634Z,3.80
2022-07-25T06:18:54.145Z,4.00
2022-07-25T06:21:20.620Z,4.35
2022-07-25T06:23:47.065Z,3.67
2022-07-25T06:26:13.557Z,4.00
2022-07-25T06:28:40.090Z,3.83
2022-07-25T06:31:06.581Z,3.70
2022-07-25T06:33:33.217Z,4.00
2022-07-25T06:35:59.870Z,3.50
2022-07-25T06:38:26.324Z,3.78
2022-07-25T06:40:52.806Z,3.28
2022-07-25T06:43:20.202Z,3.80
2022-07-25T06:45:47.640Z,3.80
2022-07-25T06:48:15.324Z,4.03
2022-07-25T06:50:44.612Z,3.60
2022-07-25T06:53:11.446Z,3.95
2022-07-25T06:55:38.105Z,4.28
2022-07-25T06:58:05.276Z,4.40
2022-07-25T07:00:32.406Z,3.63
2022-07-25T07:03:01.832Z,4.18
2022-07-25T07:05:32.208Z,3.45
2022-07-25T07:07:59.433Z,3.83
2022-07-25T07:10:26.959Z,3.83
2022-07-25T07:13:09.840Z,4.07
2022-07-25T07:15:44.525Z,4.20
2022-07-25T07:18:14.787Z,4.07
2022-07-25T07:20:42.458Z,3.90
2022-07-25T07:23:11.609Z,4.10
2022-07-25T07:25:47.312Z,4.45
2022-07-25T07:28:14.678Z,4.57
2022-07-25T07:31:14.505Z,4.30
2022-07-25T07:33:31.418Z,4.30
2022-07-25T07:38:26.016Z,3.97
2022-07-25T07:40:53.726Z,4.50
2022-07-25T07:43:20.503Z,4.65
2022-07-25T07:45:47.060Z,3.92
2022-07-25T07:48:13.607Z,4.35
2022-07-25T07:50:44.410Z,4.20
2022-07-25T07:53:21.158Z,4.28
2022-07-25T07:55:58.293Z,4.28
2022-07-25T07:58:24.723Z,4.30
2022-07-25T08:00:52.150Z,4.60
2022-07-25T08:03:20.857Z,4.65
2022-07-25T08:05:49.136Z,3.75
2022-07-25T08:08:16.188Z,4.32
2022-07-25T08:10:45.076Z,4.43
2022-07-25T08:13:18.286Z,4.25
2022-07-25T08:15:46.403Z,4.22
2022-07-25T08:18:17.019Z,4.47
2022-07-25T08:20:45.126Z,4.18
2022-07-25T08:23:11.776Z,4.15
2022-07-25T08:25:38.978Z,4.38
2022-07-25T08:28:08.758Z,4.68
2022-07-25T08:30:37.124Z,4.20
2022-07-25T08:33:06.972Z,4.30
2022-07-25T08:38:04.945Z,4.10
2022-07-25T08:40:32.825Z,4.47
2022-07-25T08:43:00.116Z,4.40
2022-07-25T08:45:31.540Z,4.40
2022-07-25T08:47:57.971Z,5.00
2022-07-25T08:50:28.026Z,5.00
2022-07-25T08:53:09.984Z,4.40
2022-07-25T08:55:42.457Z,4.65
2022-07-25T08:58:11.402Z,4.80
2022-07-25T09:00:38.501Z,4.87
2022-07-25T09:03:08.931Z,4.80
2022-07-25T09:05:37.206Z,5.47
2022-07-25T09:08:12.413Z,4.72
2022-07-25T09:10:39.849Z,4.72
2022-07-25T09:13:11.018Z,4.95
2022-07-25T09:15:45.587Z,5.30
2022-07-25T09:18:16.051Z,5.32
2022-07-25T09:20:45.937Z,5.28
2022-07-25T09:23:27.507Z,7.07
2022-07-25T09:26:08.461Z,5.82
2022-07-25T09:28:42.825Z,6.00
2022-07-25T09:31:13.504Z,5.32
2022-07-25T09:33:49.812Z,5.47
2022-07-25T09:36:16.486Z,5.32
2022-07-25T09:38:56.432Z,5.30
2022-07-25T09:41:32.850Z,5.50
2022-07-25T09:43:59.504Z,5.30
2022-07-25T09:46:33.137Z,4.75
2022-07-25T09:49:01.069Z,5.53
2022-07-25T09:51:28.869Z,5.47
2022-07-25T09:53:55.439Z,5.32
2022-07-25T09:56:21.995Z,5.28
2022-07-25T09:58:48.442Z,5.13
2022-07-25T10:01:25.080Z,5.22
2022-07-25T10:03:57.127Z,5.43
2022-07-25T10:06:39.260Z,8.63
2022-07-25T10:09:13.382Z,5.40
2022-07-25T10:11:42.844Z,5.30
2022-07-25T10:14:12.704Z,5.38
2022-07-25T10:16:47.086Z,5.18
2022-07-25T10:19:13.944Z,5.05
2022-07-25T10:21:41.014Z,5.63
2022-07-25T10:24:10.374Z,5.60
2022-07-25T10:26:52.170Z,5.10
2022-07-25T10:29:18.815Z,5.68
2022-07-25T10:31:50.388Z,5.25
2022-07-25T10:34:30.311Z,5.38
2022-07-25T10:36:57.490Z,5.40
2022-07-25T10:39:24.167Z,5.50
2022-07-25T10:41:56.757Z,5.38
2022-07-25T10:44:23.319Z,5.50
2022-07-25T10:46:50.432Z,5.70
2022-07-25T10:49:32.270Z,5.20
2022-07-25T10:52:03.775Z,5.20
2022-07-25T10:54:36.333Z,5.53
2022-07-25T10:57:05.094Z,5.13
2022-07-25T10:59:37.312Z,5.27
2022-07-25T11:02:06.830Z,5.50
2022-07-25T11:07:17.695Z,5.25
2022-07-25T11:09:45.314Z,5.55
2022-07-25T11:12:15.374Z,5.82
2022-07-25T11:14:42.828Z,5.05
2022-07-25T11:17:15.418Z,5.50
2022-07-25T11:19:44.867Z,5.55
2022-07-25T11:22:12.496Z,5.25
2022-07-25T11:24:43.264Z,5.47
2022-07-25T11:27:12.962Z,5.72
2022-07-25T11:29:40.340Z,5.20
2022-07-25T11:32:09.936Z,5.13
2022-07-25T11:34:41.236Z,5.63
2022-07-25T11:37:09.998Z,5.60
2022-07-25T11:39:39.907Z,5.82
2022-07-25T11:42:10.344Z,5.78
2022-07-25T11:44:38.084Z,5.65
2022-07-25T11:47:06.260Z,5.60
2022-07-25T11:49:44.204Z,5.20
2022-07-25T11:52:34.793Z,5.85
2022-07-25T11:55:03.909Z,5.50
2022-07-25T11:57:36.144Z,5.97
2022-07-25T12:00:16.259Z,5.53
2022-07-25T12:02:43.651Z,4.90
2022-07-25T12:05:12.549Z,5.80
2022-07-25T12:07:46.580Z,5.53
2022-07-25T12:10:22.605Z,5.50
2022-07-25T12:12:54.750Z,5.85
2022-07-25T12:15:30.290Z,5.32
2022-07-25T12:17:58.804Z,5.88
2022-07-25T12:20:32.224Z,5.97
2022-07-25T12:23:02.370Z,5.25
2022-07-25T12:25:31.161Z,5.75
2022-07-25T12:27:59.285Z,5.40
2022-07-25T12:30:28.013Z,5.80
2022-07-25T12:32:58.870Z,5.70
2022-07-25T12:35:25.784Z,5.88
2022-07-25T12:37:52.992Z,5.68
2022-07-25T12:40:20.348Z,5.82
2022-07-25T12:42:47.290Z,5.50
2022-07-25T12:45:17.840Z,5.72
2022-07-25T12:47:45.555Z,6.57
2022-07-25T12:50:13.550Z,5.90
2022-07-25T12:52:40.795Z,5.47
2022-07-25T12:55:08.874Z,6.30
2022-07-25T12:57:36.938Z,5.82
2022-07-25T13:00:09.402Z,5.80
2022-07-25T13:02:36.023Z,5.88
2022-07-25T13:05:02.762Z,6.00
2022-07-25T13:07:29.439Z,6.32
2022-07-25T13:09:55.918Z,5.68
2022-07-25T13:12:23.701Z,5.57
2022-07-25T13:14:51.052Z,5.93
2022-07-25T13:17:17.712Z,5.60
2022-07-25T13:19:44.394Z,5.65
2022-07-25T13:22:10.946Z,5.50
2022-07-25T13:24:39.343Z,5.40
2022-07-25T13:27:06.304Z,5.28
2022-07-25T13:29:33.280Z,5.22
2022-07-25T13:32:01.983Z,5.80
2022-07-25T13:34:28.631Z,5.25
2022-07-25T13:36:55.094Z,5.63
2022-07-25T13:39:22.648Z,4.85
2022-07-25T13:41:49.859Z,5.25
2022-07-25T13:44:16.403Z,5.13
2022-07-25T13:46:46.055Z,5.07
2022-07-25T13:49:12.912Z,5.18
2022-07-25T13:51:39.479Z,5.57
2022-07-25T13:54:05.934Z,5.80
2022-07-25T13:56:32.959Z,5.07
2022-07-25T13:58:59.860Z,6.03
2022-07-25T14:01:28.673Z,5.95
2022-07-25T14:03:55.564Z,5.80
2022-07-25T14:06:22.506Z,6.00
2022-07-25T14:08:49.422Z,5.30
2022-07-25T14:11:16.062Z,5.60
2022-07-25T14:13:43.643Z,5.85
2022-07-25T14:16:10.590Z,6.20
2022-07-25T14:18:37.447Z,5.85
2022-07-25T14:21:03.965Z,6.13
2022-07-25T14:23:30.515Z,6.00
2022-07-25T14:25:58.880Z,5.38
2022-07-25T14:28:25.687Z,5.47
2022-07-25T14:30:52.451Z,5.40
2022-07-25T14:33:18.945Z,5.68
2022-07-25T14:35:46.511Z,5.00
2022-07-25T14:38:13.104Z,4.65
2022-07-25T14:40:42.070Z,4.85
2022-07-25T14:43:08.754Z,5.78
2022-07-25T14:45:37.081Z,4.70
2022-07-25T14:48:05.927Z,4.45
2022-07-25T14:50:32.576Z,4.70
2022-07-25T14:52:59.187Z,4.30
2022-07-25T14:55:25.864Z,4.40
2022-07-25T14:57:52.531Z,4.63
2022-07-25T15:00:19.161Z,5.00
2022-07-25T15:02:45.646Z,4.50
2022-07-25T15:05:12.145Z,5.40
2022-07-25T15:07:38.734Z,5.35
2022-07-25T15:10:05.967Z,4.63
2022-07-25T15:12:32.407Z,4.85
2022-07-25T15:14:58.849Z,5.03
2022-07-25T15:17:25.369Z,4.85
2022-07-25T15:19:51.810Z,5.25
2022-07-25T15:22:18.233Z,5.25
2022-07-25T15:25:17.197Z,5.65
2022-07-25T15:27:31.880Z,5.22
2022-07-25T15:29:58.292Z,5.15
2022-07-25T15:32:24.779Z,5.70
2022-07-25T15:34:51.207Z,6.43
2022-07-25T15:37:17.715Z,6.20
2022-07-25T15:39:45.395Z,6.10
2022-07-25T15:42:12.283Z,6.55
2022-07-25T15:44:38.898Z,5.88
2022-07-25T15:47:08.999Z,6.07
2022-07-25T15:49:37.137Z,6.00
2022-07-25T15:52:03.737Z,5.13
2022-07-25T15:54:30.387Z,5.15
2022-07-25T15:56:57.133Z,4.80
2022-07-25T15:59:23.647Z,4.93
2022-07-25T16:01:50.104Z,4.78
2022-07-25T16:04:16.772Z,4.85
2022-07-25T16:06:43.437Z,5.25
2022-07-25T16:09:12.448Z,7.45
2022-07-25T16:11:39.143Z,13.40
2022-07-25T16:14:05.577Z,7.28
2022-07-25T16:16:32.145Z,6.03
2022-07-25T16:18:58.760Z,5.68
2022-07-25T16:21:25.413Z,4.93
2022-07-25T16:23:51.982Z,4.95
2022-07-25T16:26:18.526Z,4.93
2022-07-25T16:28:46.319Z,4.22
2022-07-25T16:31:12.916Z,3.90
2022-07-25T16:33:39.530Z,4.05
2022-07-25T16:36:06.357Z,3.88
2022-07-25T16:38:32.912Z,4.00
2022-07-25T16:40:59.563Z,3.85
2022-07-25T16:43:25.954Z,4.18
2022-07-25T16:45:52.450Z,3.45
2022-07-25T16:48:18.930Z,3.85
2022-07-25T16:50:45.425Z,3.80
2022-07-25T16:53:11.861Z,3.83
2022-07-25T16:55:38.806Z,3.65
2022-07-25T16:58:05.169Z,3.88
2022-07-25T17:00:31.626Z,3.85
2022-07-25T17:02:58.507Z,3.67
2022-07-25T17:05:25.034Z,3.83
2022-07-25T17:07:58.994Z,3.80
2022-07-25T17:10:26.136Z,4.22
2022-07-25T17:12:52.571Z,4.38
2022-07-25T17:15:20.184Z,4.72
2022-07-25T17:17:46.571Z,4.55
2022-07-25T17:20:13.048Z,4.70
2022-07-25T17:22:39.514Z,4.70
2022-07-25T17:25:06.496Z,4.43
2022-07-25T17:27:32.921Z,4.45
2022-07-25T17:29:59.309Z,4.70
2022-07-25T17:32:29.730Z,4.30
2022-07-25T17:34:56.777Z,4.60
2022-07-25T17:37:24.327Z,4.88
2022-07-25T17:39:50.996Z,4.88
2022-07-25T17:42:22.230Z,4.80
2022-07-25T17:44:50.398Z,5.15
2022-07-25T17:47:17.723Z,5.00
2022-07-25T17:49:44.825Z,4.57
2022-07-25T17:52:15.596Z,4.80
2022-07-25T17:54:42.622Z,5.13
2022-07-25T17:57:09.232Z,4.80
2022-07-25T17:59:36.142Z,5.00
2022-07-25T18:02:03.276Z,5.13
2022-07-25T18:04:30.046Z,5.05
2022-07-25T18:06:56.684Z,4.47
2022-07-25T18:09:24.398Z,4.70
2022-07-25T18:11:51.502Z,4.78
2022-07-25T18:14:17.932Z,4.88
2022-07-25T18:16:45.474Z,4.10
2022-07-25T18:19:12.171Z,4.45
2022-07-25T18:21:38.749Z,4.53
2022-07-25T18:24:06.423Z,4.22
2022-07-25T18:26:34.152Z,4.28
2022-07-25T18:29:00.704Z,5.00
2022-07-25T18:31:27.370Z,4.65
2022-07-25T18:33:53.993Z,3.78
2022-07-25T18:36:20.473Z,4.07
2022-07-25T18:38:48.318Z,4.50
2022-07-25T18:41:30.606Z,4.22
2022-07-25T18:43:57.288Z,4.18
2022-07-25T18:46:23.995Z,3.70
2022-07-25T18:52:14.230Z,3.92
2022-07-25T18:54:40.613Z,3.97
2022-07-25T18:57:07.194Z,3.80
2022-07-25T18:59:33.639Z,3.75
2022-07-25T19:02:00.178Z,3.65
2022-07-25T19:04:26.675Z,3.47
2022-07-25T19:06:53.174Z,3.40
2022-07-25T19:09:19.726Z,3.70
2022-07-25T19:11:46.168Z,3.92
2022-07-25T19:14:12.543Z,3.85
2022-07-25T19:16:39.032Z,3.50
2022-07-25T19:19:05.718Z,3.03
2022-07-25T19:21:32.201Z,3.20
2022-07-25T19:23:58.623Z,3.30
2022-07-25T19:26:25.195Z,3.10
2022-07-25T19:28:54.625Z,3.03
2022-07-25T19:31:24.074Z,3.20
2022-07-25T19:33:53.361Z,3.08
2022-07-25T19:36:19.841Z,3.80
2022-07-25T19:38:46.287Z,3.30
2022-07-25T19:41:12.703Z,2.97
2022-07-25T19:43:39.311Z,2.95
2022-07-25T19:46:06.373Z,3.30
2022-07-25T19:48:32.904Z,3.10
2022-07-25T19:51:00.302Z,3.13
2022-07-25T19:53:28.674Z,3.08
2022-07-25T19:55:55.307Z,3.05
2022-07-25T19:58:21.712Z,3.00
2022-07-25T20:00:48.159Z,2.95
2022-07-25T20:03:15.615Z,3.20
2022-07-25T20:05:42.112Z,3.15
2022-07-25T20:08:08.511Z,2.95
2022-07-25T20:10:34.920Z,3.00
2022-07-25T20:13:01.796Z,3.53
2022-07-25T20:15:30.672Z,3.38
2022-07-25T20:18:00.143Z,3.20
2022-07-25T20:20:26.753Z,3.33
2022-07-25T20:22:53.239Z,3.00
2022-07-25T20:25:19.731Z,3.03
2022-07-25T20:27:46.191Z,3.00
2022-07-25T20:30:13.324Z,3.10
2022-07-25T20:32:39.743Z,3.15
2022-07-25T20:35:06.879Z,3.00
2022-07-25T20:37:33.298Z,3.20
2022-07-25T20:40:02.100Z,3.00
2022-07-25T20:42:31.631Z,3.10
2022-07-25T20:44:58.148Z,2.92
2022-07-25T20:47:25.035Z,2.97
2022-07-25T20:49:51.593Z,3.28
2022-07-25T20:52:18.231Z,2.78
2022-07-25T20:54:44.722Z,3.30
2022-07-25T20:57:11.690Z,3.15
2022-07-25T20:59:38.067Z,3.35
2022-07-25T21:02:04.647Z,3.42
2022-07-25T21:04:31.241Z,3.63
2022-07-25T21:06:57.694Z,3.20
2022-07-25T21:09:24.105Z,3.50
2022-07-25T21:11:50.656Z,3.80
2022-07-25T21:14:17.555Z,3.28
2022-07-25T21:16:44.102Z,3.22
2022-07-25T21:19:10.941Z,3.17
2022-07-25T21:21:43.388Z,3.08
2022-07-25T21:24:14.387Z,3.35
2022-07-25T21:26:45.022Z,3.00
2022-07-25T21:29:12.591Z,3.05
2022-07-25T21:31:39.176Z,3.05
2022-07-25T21:34:05.723Z,3.35
2022-07-25T21:36:37.630Z,3.33
2022-07-25T21:39:06.495Z,3.25
2022-07-25T21:41:34.230Z,3.05
2022-07-25T21:44:04.916Z,3.60
2022-07-25T21:46:31.737Z,3.35
2022-07-25T21:49:16.901Z,3.30
2022-07-25T21:51:51.968Z,3.42
2022-07-25T21:54:20.220Z,3.55
2022-07-25T21:56:46.682Z,3.22
2022-07-25T21:59:13.089Z,3.50
2022-07-25T22:01:39.565Z,3.08
2022-07-25T22:04:06.104Z,3.30
2022-07-25T22:06:32.623Z,3.00
2022-07-25T22:08:59.029Z,3.00
2022-07-25T22:11:38.873Z,3.28
2022-07-25T22:14:12.231Z,2.97
2022-07-25T22:16:38.666Z,3.10
2022-07-25T22:19:05.435Z,2.40
2022-07-25T22:21:32.898Z,2.67
2022-07-25T22:23:59.311Z,2.65
2022-07-25T22:26:25.784Z,2.78
2022-07-25T22:28:52.201Z,2.97
2022-07-25T22:31:18.830Z,3.20
2022-07-25T22:33:45.346Z,2.90
2022-07-25T22:36:11.732Z,3.30
2022-07-25T22:38:38.238Z,3.17
2022-07-25T22:41:04.808Z,2.85
2022-07-25T22:43:56.454Z,3.13
2022-07-25T22:46:17.749Z,3.20
2022-07-25T22:48:44.302Z,3.15
2022-07-25T22:51:11.303Z,3.80
2022-07-25T22:53:37.831Z,3.17
2022-07-25T22:56:04.478Z,2.95
2022-07-25T22:58:30.893Z,3.55
2022-07-25T23:00:57.327Z,3.15
2022-07-25T23:03:23.757Z,3.05
2022-07-25T23:05:50.210Z,2.88
2022-07-25T23:08:20.418Z,2.85
2022-07-25T23:10:47.026Z,3.20
2022-07-25T23:13:13.515Z,3.33
2022-07-25T23:15:50.520Z,3.00
2022-07-25T23:18:17.981Z,2.95
2022-07-25T23:20:44.388Z,3.33
2022-07-25T23:23:10.947Z,3.50
2022-07-25T23:25:37.397Z,3.20
2022-07-25T23:28:04.063Z,3.03
2022-07-25T23:30:30.672Z,3.05
2022-07-25T23:32:57.141Z,3.17
2022-07-25T23:35:24.063Z,3.00
2022-07-25T23:37:50.621Z,3.20
2022-07-25T23:40:17.088Z,3.20
2022-07-25T23:42:43.870Z,2.88
2022-07-25T23:45:10.530Z,3.22
2022-07-25T23:47:39.503Z,3.33
2022-07-25T23:50:07.991Z,3.28
2022-07-25T23:52:34.434Z,2.70
2022-07-25T23:55:00.999Z,3.35
2022-07-25T23:57:27.418Z,2.97
2022-07-25T23:59:53.822Z,3.28
